63 Max
36 km/h
11 Mini

LFMY 270430Z AUTO 34007KT 9999 ///TCU 04/M03 Q1018

TAF AMD LFMY 261704Z 2617/2715 CNL